Time;durP1;ratioP1;P1;durP2;ratioP2;P2;SDS_P1;SDS_P2;PMS_P1;PMS_P2;Temp;Humidity;BMP_temperature;BMP_pressure;BME280_temperature;BME280_humidity;BME280_pressure;Samples;Min_cycle;Max_cycle;Signal;HPM_P1;HPM_P2
2023/02/07 00:00:45;;;;;;;24.97;12.30;;;4.90;98.90;;;;;;5020799;28;20675;-90
2023/02/07 00:03:11;;;;;;;25.43;12.20;;;4.90;99.00;;;;;;5018609;28;20201;-89
2023/02/07 00:05:37;;;;;;;21.97;11.67;;;5.10;98.80;;;;;;5027778;28;20162;-89
2023/02/07 00:08:04;;;;;;;25.00;11.40;;;5.10;98.80;;;;;;5030331;28;20174;-91
2023/02/07 00:10:31;;;;;;;26.73;12.07;;;5.00;98.30;;;;;;5030978;28;20210;-87
2023/02/07 00:12:58;;;;;;;24.73;13.20;;;5.00;97.80;;;;;;5023640;28;20682;-88
2023/02/07 00:15:23;;;;;;;23.00;12.40;;;5.10;97.10;;;;;;5020140;28;20224;-88
2023/02/07 00:17:57;;;;;;;26.03;12.60;;;4.90;96.70;;;;;;5015289;28;20166;-88
2023/02/07 00:20:25;;;;;;;22.90;13.93;;;4.90;97.90;;;;;;5023189;28;20173;-85
2023/02/07 00:22:51;;;;;;;24.70;12.03;;;4.90;98.40;;;;;;5030102;28;20178;-86
2023/02/07 00:25:16;;;;;;;27.67;13.57;;;5.00;99.60;;;;;;5015770;28;20285;-86
2023/02/07 00:27:42;;;;;;;26.13;12.83;;;4.80;99.90;;;;;;5015648;28;20181;-88
2023/02/07 00:30:09;;;;;;;28.07;13.90;;;4.90;99.90;;;;;;5019861;28;20181;-88
2023/02/07 00:32:34;;;;;;;28.00;13.23;;;4.80;99.90;;;;;;5043317;28;20197;-85
2023/02/07 00:35:01;;;;;;;23.73;13.07;;;4.90;99.90;;;;;;5015856;28;20709;-88
2023/02/07 00:37:28;;;;;;;27.00;14.17;;;4.80;99.90;;;;;;5014216;28;20198;-89
2023/02/07 00:39:54;;;;;;;23.60;14.13;;;4.70;99.90;;;;;;5014953;28;20194;-88
2023/02/07 00:42:19;;;;;;;30.87;14.40;;;4.70;99.90;;;;;;5014251;28;20240;-85
2023/02/07 00:44:45;;;;;;;29.57;14.30;;;4.90;99.90;;;;;;5043232;28;20182;-86
2023/02/07 00:47:11;;;;;;;27.33;14.20;;;4.70;99.90;;;;;;5045671;28;20169;-89
2023/02/07 00:49:36;;;;;;;35.77;15.27;;;4.70;99.90;;;;;;5034756;28;20259;-87
2023/02/07 00:52:02;;;;;;;26.67;14.47;;;4.60;99.90;;;;;;5040692;28;20269;-84
2023/02/07 00:54:28;;;;;;;32.40;13.47;;;4.60;99.90;;;;;;5053848;28;20184;-85
2023/02/07 00:56:53;;;;;;;30.67;15.23;;;4.50;99.90;;;;;;5050526;28;20178;-85
2023/02/07 00:59:21;;;;;;;31.53;14.87;;;4.50;99.90;;;;;;5036359;28;20280;-87
2023/02/07 01:01:47;;;;;;;31.13;15.67;;;4.50;99.90;;;;;;5034130;28;20185;-88
2023/02/07 01:04:12;;;;;;;27.53;15.63;;;4.40;99.90;;;;;;5035485;28;20223;-88
2023/02/07 01:06:38;;;;;;;28.80;15.90;;;4.40;99.90;;;;;;5034253;28;20208;-84
2023/02/07 01:09:05;;;;;;;26.47;16.03;;;4.50;99.90;;;;;;5050334;28;20169;-84
2023/02/07 01:11:31;;;;;;;30.37;14.63;;;4.30;99.90;;;;;;5055643;28;20213;-85
2023/02/07 01:13:59;;;;;;;29.50;15.40;;;4.40;99.90;;;;;;5056554;28;20173;-84
2023/02/07 01:16:33;;;;;;;30.20;17.10;;;4.30;99.90;;;;;;5050914;28;20181;-86
2023/02/07 01:19:08;;;;;;;33.63;16.20;;;4.30;99.90;;;;;;5043295;28;20173;-88
2023/02/07 01:21:35;;;;;;;30.77;15.90;;;4.30;99.90;;;;;;5035951;28;20288;-86
2023/02/07 01:24:01;;;;;;;28.73;15.63;;;4.30;99.90;;;;;;5033286;28;20178;-87
2023/02/07 01:26:27;;;;;;;31.17;16.37;;;4.30;99.90;;;;;;5036110;28;20695;-88
2023/02/07 01:28:53;;;;;;;30.83;15.40;;;4.40;99.90;;;;;;5037205;28;20637;-89
2023/02/07 01:31:20;;;;;;;34.60;16.83;;;4.30;99.90;;;;;;5048160;28;20193;-88
2023/02/07 01:33:47;;;;;;;33.43;16.57;;;4.20;99.90;;;;;;5057519;28;20173;-86
2023/02/07 01:36:15;;;;;;;34.83;17.53;;;4.40;99.90;;;;;;5044562;28;20687;-88
2023/02/07 01:38:46;;;;;;;28.23;16.03;;;4.40;99.90;;;;;;5046231;28;20158;-86
2023/02/07 01:41:13;;;;;;;28.87;15.80;;;4.30;99.90;;;;;;5045483;28;20212;-87
2023/02/07 01:44:20;;;;;;;37.67;18.00;;;4.30;99.90;;;;;;5044445;28;20205;-84
2023/02/07 01:46:48;;;;;;;33.00;16.23;;;4.30;99.90;;;;;;5033429;28;20189;-86
2023/02/07 01:49:22;;;;;;;33.03;16.90;;;4.30;99.90;;;;;;5056974;28;20166;-85
2023/02/07 01:51:53;;;;;;;29.47;16.30;;;4.10;99.90;;;;;;5055679;28;20223;-87
2023/02/07 01:54:20;;;;;;;35.93;17.40;;;4.10;99.90;;;;;;5055724;28;20204;-86
2023/02/07 01:56:53;;;;;;;37.97;17.83;;;4.10;99.90;;;;;;5038180;28;20222;-85
2023/02/07 01:59:24;;;;;;;35.00;17.33;;;4.10;99.90;;;;;;5036615;28;20198;-85
2023/02/07 02:01:53;;;;;;;31.07;17.60;;;4.10;99.90;;;;;;5036118;28;20246;-87
2023/02/07 02:05:10;;;;;;;31.77;18.50;;;4.10;99.90;;;;;;5034859;28;20151;-87
2023/02/07 02:11:39;;;;;;;39.80;17.43;;;3.90;99.90;;;;;;5015351;28;20208;-89
2023/02/07 02:14:16;;;;;;;30.53;18.10;;;3.90;99.90;;;;;;4998891;28;20186;-87
2023/02/07 02:17:14;;;;;;;32.57;18.27;;;3.80;99.90;;;;;;5016009;28;20236;-89
2023/02/07 02:20:01;;;;;;;27.00;17.17;;;3.80;99.90;;;;;;5010189;28;20265;-90
2023/02/07 02:23:08;;;;;;;39.00;17.27;;;3.80;99.90;;;;;;5018776;28;20178;-89
2023/02/07 02:26:01;;;;;;;34.17;18.80;;;3.70;99.90;;;;;;5032637;28;20160;-88
2023/02/07 02:28:59;;;;;;;42.17;19.73;;;3.60;99.90;;;;;;5021081;28;20189;-87
2023/02/07 02:31:42;;;;;;;30.30;19.10;;;3.70;99.90;;;;;;5017902;28;20694;-87
2023/02/07 02:34:40;;;;;;;33.30;18.70;;;3.80;99.90;;;;;;5017941;28;20171;-87
2023/02/07 02:37:41;;;;;;;33.67;18.60;;;3.80;99.90;;;;;;5017006;28;20174;-88
2023/02/07 02:40:26;;;;;;;30.93;19.17;;;3.70;99.90;;;;;;5035910;28;20241;-88
2023/02/07 02:43:06;;;;;;;28.73;16.80;;;3.70;99.90;;;;;;5017699;28;20638;-89
2023/02/07 02:45:38;;;;;;;33.40;18.40;;;3.60;99.90;;;;;;5016583;28;20231;-87
2023/02/07 02:48:06;;;;;;;31.10;17.93;;;3.60;99.90;;;;;;5017322;28;20170;-90
2023/02/07 02:50:33;;;;;;;39.70;19.20;;;3.80;99.90;;;;;;5016596;28;20225;-89
2023/02/07 02:52:59;;;;;;;39.93;18.60;;;3.70;99.90;;;;;;5017688;28;20243;-89
2023/02/07 02:56:03;;;;;;;32.50;18.57;;;3.60;99.90;;;;;;5016856;28;20269;-89
2023/02/07 02:58:50;;;;;;;29.90;18.13;;;3.50;99.90;;;;;;5016497;28;20196;-89
2023/02/07 03:01:54;;;;;;;36.30;18.50;;;3.50;99.90;;;;;;5018891;28;20596;-89
2023/02/07 03:04:31;;;;;;;31.77;18.30;;;3.40;99.90;;;;;;5026855;28;20212;-89
2023/02/07 03:07:16;;;;;;;36.43;18.77;;;3.50;99.90;;;;;;5031058;28;20241;-88
2023/02/07 03:10:12;;;;;;;36.43;20.07;;;3.40;99.90;;;;;;5030512;28;20174;-88
2023/02/07 03:12:50;;;;;;;36.80;19.47;;;3.50;99.90;;;;;;5039051;28;20403;-87
2023/02/07 03:15:52;;;;;;;34.67;18.60;;;3.40;99.90;;;;;;5034790;28;20202;-88
2023/02/07 03:18:45;;;;;;;34.97;18.17;;;3.30;99.90;;;;;;5030958;28;20193;-87
2023/02/07 03:21:20;;;;;;;25.53;17.40;;;3.30;99.90;;;;;;5028051;28;20242;-88
2023/02/07 03:23:48;;;;;;;31.87;17.50;;;3.40;99.90;;;;;;5029738;28;20166;-89
2023/02/07 03:26:14;;;;;;;31.40;17.83;;;3.30;99.90;;;;;;5021125;28;20189;-85
2023/02/07 03:28:41;;;;;;;32.40;17.83;;;3.40;99.90;;;;;;5039437;28;20509;-88
2023/02/07 03:31:09;;;;;;;30.93;18.23;;;3.30;99.90;;;;;;5039439;28;20655;-85
2023/02/07 03:33:42;;;;;;;32.20;17.80;;;3.20;99.90;;;;;;5024295;28;20193;-85
2023/02/07 03:36:52;;;;;;;27.83;17.67;;;3.20;99.90;;;;;;5016232;28;20182;-88
2023/02/07 03:39:19;;;;;;;28.77;17.07;;;3.20;99.90;;;;;;5015082;28;20190;-89
2023/02/07 03:41:52;;;;;;;30.60;16.90;;;3.10;99.90;;;;;;5017692;28;20178;-88
2023/02/07 03:44:21;;;;;;;28.73;17.80;;;3.10;99.90;;;;;;5038890;28;20178;-88
2023/02/07 03:46:49;;;;;;;29.10;16.97;;;3.10;99.90;;;;;;5017305;28;20182;-86
2023/02/07 03:49:17;;;;;;;30.70;17.37;;;3.20;99.90;;;;;;5016585;28;20636;-88
2023/02/07 03:51:43;;;;;;;32.50;17.20;;;3.00;99.90;;;;;;5015320;28;20218;-89
2023/02/07 03:54:10;;;;;;;32.20;16.97;;;2.90;99.90;;;;;;5015593;28;20269;-87
2023/02/07 03:56:37;;;;;;;28.37;17.83;;;2.90;99.90;;;;;;5015433;28;20190;-88
2023/02/07 03:59:02;;;;;;;28.80;18.33;;;2.90;99.90;;;;;;5025235;28;20178;-84
2023/02/07 04:01:28;;;;;;;27.20;17.30;;;3.00;99.90;;;;;;5038096;28;20185;-88
2023/02/07 04:03:54;;;;;;;30.27;17.57;;;2.90;99.90;;;;;;5023192;28;20201;-88
2023/02/07 04:06:23;;;;;;;31.13;18.17;;;2.90;99.90;;;;;;5024848;28;20182;-88
2023/02/07 04:08:50;;;;;;;29.43;18.37;;;2.80;99.90;;;;;;5015047;28;20281;-88
2023/02/07 04:11:16;;;;;;;37.20;20.17;;;2.80;99.90;;;;;;5015071;28;20661;-87
2023/02/07 04:13:42;;;;;;;33.30;19.97;;;2.80;99.90;;;;;;5014479;28;20213;-87
2023/02/07 04:16:08;;;;;;;33.00;19.30;;;2.70;99.90;;;;;;5031273;28;20170;-88
2023/02/07 04:18:33;;;;;;;36.53;20.10;;;2.70;99.90;;;;;;5017124;28;20186;-88
2023/02/07 04:21:04;;;;;;;30.33;19.87;;;2.80;99.90;;;;;;5014859;28;20174;-87
2023/02/07 04:23:30;;;;;;;32.23;19.10;;;2.60;99.90;;;;;;5014895;28;20260;-87
2023/02/07 04:25:56;;;;;;;31.73;18.93;;;2.50;99.90;;;;;;5014600;28;20212;-85
2023/02/07 04:28:22;;;;;;;37.60;21.07;;;2.30;99.90;;;;;;5027474;28;20186;-87
2023/02/07 04:30:48;;;;;;;35.60;19.23;;;2.40;99.90;;;;;;5018425;28;20681;-86
2023/02/07 04:33:15;;;;;;;36.27;21.10;;;2.20;99.90;;;;;;5015032;28;20167;-87
2023/02/07 04:35:41;;;;;;;32.10;20.47;;;2.40;99.90;;;;;;5014144;28;20608;-88
2023/02/07 04:38:06;;;;;;;34.20;20.93;;;2.10;99.90;;;;;;5014270;28;20205;-89
2023/02/07 04:40:32;;;;;;;31.10;19.87;;;2.00;99.90;;;;;;5013729;28;20627;-88
2023/02/07 04:42:58;;;;;;;32.00;19.50;;;2.10;99.90;;;;;;5015448;28;20167;-88
2023/02/07 04:45:23;;;;;;;38.23;20.90;;;1.80;99.90;;;;;;5014399;28;20185;-87
2023/02/07 04:47:49;;;;;;;32.07;20.10;;;1.80;99.90;;;;;;5014856;28;20644;-84
2023/02/07 04:50:15;;;;;;;32.10;19.53;;;1.70;99.90;;;;;;5015167;28;20700;-88
2023/02/07 04:52:41;;;;;;;34.33;21.97;;;1.80;99.90;;;;;;5016645;28;20202;-89
2023/02/07 04:55:08;;;;;;;38.37;21.10;;;1.60;99.90;;;;;;5019995;28;20269;-86
2023/02/07 04:57:34;;;;;;;36.57;20.73;;;1.70;99.90;;;;;;5017665;28;20194;-89
2023/02/07 05:00:00;;;;;;;32.27;21.27;;;1.70;99.90;;;;;;5014558;28;20193;-89
2023/02/07 05:02:27;;;;;;;32.20;21.40;;;1.50;99.90;;;;;;5015656;28;20167;-89
2023/02/07 05:04:53;;;;;;;36.80;21.23;;;1.50;99.90;;;;;;5014155;28;20171;-86
2023/02/07 05:07:19;;;;;;;35.27;21.53;;;1.70;99.90;;;;;;5015363;28;20182;-87
2023/02/07 05:09:44;;;;;;;29.90;19.47;;;1.50;99.90;;;;;;5012880;28;20201;-88
2023/02/07 05:12:10;;;;;;;34.23;19.93;;;1.50;99.90;;;;;;5014258;28;20304;-87
2023/02/07 05:14:35;;;;;;;31.43;20.70;;;1.50;99.90;;;;;;5014778;28;20209;-86
2023/02/07 05:17:01;;;;;;;38.40;22.10;;;1.60;99.90;;;;;;5016057;28;20176;-85
2023/02/07 05:19:28;;;;;;;33.50;21.03;;;1.60;99.90;;;;;;5013889;28;20639;-87
2023/02/07 05:21:54;;;;;;;39.57;20.47;;;1.50;99.90;;;;;;5016778;28;20587;-85
2023/02/07 05:24:20;;;;;;;40.43;22.07;;;1.40;99.90;;;;;;5031488;28;20171;-84
2023/02/07 05:26:45;;;;;;;36.43;21.27;;;1.40;99.90;;;;;;5034810;28;20204;-85
2023/02/07 05:29:14;;;;;;;34.33;21.93;;;1.40;99.90;;;;;;5027198;28;20170;-86
2023/02/07 05:34:24;;;;;;;36.87;20.70;;;1.60;99.90;;;;;;5025447;28;20243;-88
2023/02/07 05:36:51;;;;;;;35.47;22.47;;;1.40;99.90;;;;;;5026436;28;20178;-88
2023/02/07 05:39:16;;;;;;;36.10;22.73;;;1.50;99.90;;;;;;5036518;28;20410;-86
2023/02/07 05:41:43;;;;;;;39.27;21.00;;;1.60;99.90;;;;;;5035204;28;20214;-86
2023/02/07 05:44:12;;;;;;;32.63;20.93;;;1.30;99.90;;;;;;5028800;28;20619;-88
2023/02/07 05:46:37;;;;;;;35.03;20.77;;;1.30;99.90;;;;;;5024299;28;20181;-88
2023/02/07 05:49:06;;;;;;;37.80;22.60;;;1.20;99.90;;;;;;5033925;28;20182;-89
2023/02/07 05:51:32;;;;;;;34.50;21.30;;;1.20;99.90;;;;;;5036870;28;20194;-88
2023/02/07 05:54:00;;;;;;;37.93;22.43;;;1.20;99.90;;;;;;5031068;28;20282;-86
2023/02/07 05:56:26;;;;;;;36.57;22.53;;;1.50;99.90;;;;;;5022061;28;20246;-89
2023/02/07 05:58:55;;;;;;;42.80;27.27;;;1.40;99.90;;;;;;5019320;28;20225;-89
2023/02/07 06:01:21;;;;;;;33.70;21.93;;;1.40;99.90;;;;;;5021893;28;20178;-88
2023/02/07 06:03:47;;;;;;;35.97;23.20;;;1.50;99.90;;;;;;5039525;28;20193;-86
2023/02/07 06:06:14;;;;;;;35.83;22.03;;;1.30;99.90;;;;;;5030620;28;20170;-87
2023/02/07 06:08:43;;;;;;;38.67;23.97;;;1.40;99.90;;;;;;5026992;28;20201;-88
2023/02/07 06:11:08;;;;;;;40.63;24.10;;;1.40;99.90;;;;;;5020118;28;20210;-87
2023/02/07 06:13:34;;;;;;;33.57;23.13;;;1.40;99.90;;;;;;5027569;28;20184;-88
2023/02/07 06:16:00;;;;;;;36.37;21.63;;;1.60;99.90;;;;;;5037351;28;20186;-85
2023/02/07 06:18:25;;;;;;;37.37;21.43;;;1.40;99.90;;;;;;5044372;28;20225;-87
2023/02/07 06:20:52;;;;;;;35.10;23.07;;;1.20;99.90;;;;;;5063723;28;20161;-84
2023/02/07 06:23:19;;;;;;;38.10;23.17;;;1.30;99.90;;;;;;5060925;28;20221;-84
2023/02/07 06:25:48;;;;;;;32.83;21.50;;;1.20;99.90;;;;;;5060614;28;20186;-84
2023/02/07 06:28:20;;;;;;;33.57;22.53;;;1.20;99.90;;;;;;5049502;28;20209;-87
2023/02/07 06:34:22;;;;;;;38.03;21.50;;;1.10;99.90;;;;;;5044205;28;20472;-88
2023/02/07 06:37:22;;;;;;;38.97;21.23;;;1.10;99.90;;;;;;5047143;28;20217;-87
2023/02/07 06:39:55;;;;;;;34.93;21.67;;;1.10;99.90;;;;;;5040829;28;20181;-88
2023/02/07 06:42:24;;;;;;;37.00;22.33;;;1.10;99.90;;;;;;5041762;28;20241;-89
2023/02/07 06:44:50;;;;;;;33.23;22.93;;;1.10;99.90;;;;;;5040801;28;20178;-89
2023/02/07 06:47:16;;;;;;;34.53;22.23;;;1.20;99.90;;;;;;5041496;28;20582;-88
2023/02/07 06:49:41;;;;;;;37.70;23.13;;;1.20;99.90;;;;;;5031568;28;20174;-87
2023/02/07 06:52:07;;;;;;;40.10;24.30;;;1.20;99.90;;;;;;5018332;28;20279;-89
2023/02/07 06:54:33;;;;;;;39.43;23.27;;;1.20;99.90;;;;;;5017261;28;20645;-89
2023/02/07 06:56:59;;;;;;;41.47;25.13;;;1.20;99.90;;;;;;5021898;28;20189;-85
2023/02/07 06:59:25;;;;;;;43.83;26.43;;;1.10;99.90;;;;;;5019466;28;20186;-86
2023/02/07 07:01:51;;;;;;;40.67;25.33;;;1.20;99.90;;;;;;5019094;28;20260;-85
2023/02/07 07:04:17;;;;;;;58.00;26.23;;;1.10;99.90;;;;;;5038701;28;20180;-89
2023/02/07 07:06:44;;;;;;;41.33;24.53;;;1.10;99.90;;;;;;5016338;28;20261;-89
2023/02/07 07:09:11;;;;;;;43.37;22.87;;;1.00;99.90;;;;;;5040912;28;20177;-90
2023/02/07 07:11:41;;;;;;;45.63;24.30;;;1.20;99.90;;;;;;5036873;28;20279;-87
2023/02/07 07:14:11;;;;;;;51.40;23.60;;;1.00;99.90;;;;;;5024602;28;20170;-90
2023/02/07 07:16:47;;;;;;;51.93;25.13;;;0.90;99.90;;;;;;5018311;28;20189;-86
2023/02/07 07:19:12;;;;;;;65.03;24.90;;;0.90;99.90;;;;;;5035654;28;20180;-87
2023/02/07 07:21:38;;;;;;;84.03;26.20;;;0.90;99.90;;;;;;5034901;28;20182;-88
2023/02/07 07:24:05;;;;;;;83.17;27.60;;;0.70;99.90;;;;;;5035503;28;20210;-86
2023/02/07 07:26:30;;;;;;;81.63;29.17;;;0.60;99.90;;;;;;5036639;28;20177;-87
2023/02/07 07:28:58;;;;;;;53.30;25.97;;;0.70;99.90;;;;;;5036252;28;20550;-89
2023/02/07 07:31:25;;;;;;;52.80;27.60;;;0.70;99.90;;;;;;5038836;28;20217;-90
2023/02/07 07:33:55;;;;;;;53.80;29.03;;;0.70;99.90;;;;;;5040847;28;20170;-88
2023/02/07 07:36:21;;;;;;;52.43;29.77;;;0.80;99.90;;;;;;5041573;28;20180;-89
2023/02/07 07:38:47;;;;;;;51.53;27.90;;;0.90;99.90;;;;;;5057169;28;20598;-87
2023/02/07 07:41:12;;;;;;;47.63;28.60;;;0.90;99.90;;;;;;5055296;28;20265;-87
2023/02/07 07:43:38;;;;;;;54.33;28.53;;;0.90;99.90;;;;;;5041431;28;20184;-87
2023/02/07 07:46:06;;;;;;;60.13;30.60;;;0.90;99.90;;;;;;5040185;28;20251;-88
2023/02/07 07:48:32;;;;;;;50.40;28.80;;;1.00;99.90;;;;;;5041071;28;20204;-86
2023/02/07 07:50:58;;;;;;;52.63;27.53;;;1.20;99.90;;;;;;5042192;28;20197;-88
2023/02/07 07:53:24;;;;;;;54.33;28.00;;;1.10;99.90;;;;;;5055275;28;20261;-86
2023/02/07 07:55:55;;;;;;;52.87;29.80;;;1.10;99.90;;;;;;5056474;28;20196;-85
2023/02/07 07:58:22;;;;;;;49.37;27.43;;;1.10;99.90;;;;;;5053738;28;20275;-88
2023/02/07 08:00:54;;;;;;;47.60;28.03;;;1.20;99.90;;;;;;5053105;28;20169;-85
2023/02/07 08:03:20;;;;;;;57.47;29.27;;;1.20;99.90;;;;;;5042519;28;20241;-89
2023/02/07 08:05:48;;;;;;;58.73;28.47;;;1.10;99.90;;;;;;5047003;28;20234;-86
2023/02/07 08:08:15;;;;;;;55.27;28.70;;;1.10;99.90;;;;;;5047421;28;20173;-89
2023/02/07 08:10:41;;;;;;;49.33;28.27;;;1.10;99.90;;;;;;5022144;28;20209;-88
2023/02/07 08:13:08;;;;;;;50.10;28.10;;;1.30;99.90;;;;;;5038092;28;20181;-87
2023/02/07 08:15:35;;;;;;;48.43;28.97;;;1.20;99.90;;;;;;5039924;28;20197;-86
2023/02/07 08:18:01;;;;;;;48.30;27.90;;;1.20;99.90;;;;;;5039029;28;20177;-85
2023/02/07 08:20:27;;;;;;;50.63;28.43;;;1.00;99.90;;;;;;5038764;28;20176;-88
2023/02/07 08:23:00;;;;;;;45.57;28.23;;;1.30;99.90;;;;;;5049924;28;20174;-89
2023/02/07 08:25:27;;;;;;;47.50;26.93;;;1.30;99.90;;;;;;5044729;28;20174;-89
2023/02/07 08:27:54;;;;;;;46.67;25.30;;;1.70;99.90;;;;;;5045227;28;20197;-89
2023/02/07 08:30:21;;;;;;;42.67;25.40;;;1.60;99.90;;;;;;5044233;28;20244;-87
2023/02/07 08:32:47;;;;;;;49.63;25.83;;;1.70;99.90;;;;;;5048364;28;20182;-88
2023/02/07 08:35:20;;;;;;;38.17;24.77;;;1.70;99.90;;;;;;5053914;28;20201;-82
2023/02/07 08:37:49;;;;;;;43.17;25.60;;;1.70;99.90;;;;;;5056119;28;20174;-88
2023/02/07 08:40:16;;;;;;;45.83;25.67;;;1.70;99.90;;;;;;5053531;28;20174;-85
2023/02/07 08:42:42;;;;;;;42.20;25.20;;;1.70;99.90;;;;;;5057245;28;20181;-85
2023/02/07 08:45:10;;;;;;;43.67;24.53;;;1.70;99.90;;;;;;5055227;28;20230;-84
2023/02/07 08:47:38;;;;;;;40.30;25.50;;;1.70;99.90;;;;;;5054131;28;20180;-83
2023/02/07 08:50:06;;;;;;;39.63;24.93;;;1.70;99.90;;;;;;5039158;28;20256;-88
2023/02/07 08:52:32;;;;;;;39.77;24.50;;;1.60;99.90;;;;;;5025999;28;20687;-87
2023/02/07 08:54:58;;;;;;;40.70;24.10;;;1.80;99.90;;;;;;5039197;28;20292;-85
2023/02/07 08:57:24;;;;;;;39.70;24.07;;;1.70;99.90;;;;;;5037958;28;20197;-85
2023/02/07 08:59:53;;;;;;;39.17;24.13;;;1.80;99.90;;;;;;5037287;28;20253;-84
2023/02/07 09:02:19;;;;;;;45.10;24.33;;;1.80;99.90;;;;;;5039065;28;20170;-85
2023/02/07 09:04:46;;;;;;;36.97;22.93;;;1.80;99.90;;;;;;5042729;28;20197;-88
2023/02/07 09:07:12;;;;;;;39.77;25.37;;;1.80;99.90;;;;;;5040435;28;20178;-89
2023/02/07 09:09:39;;;;;;;36.73;23.73;;;1.80;99.90;;;;;;5038868;28;20165;-89
2023/02/07 09:12:05;;;;;;;42.43;24.13;;;2.00;99.90;;;;;;5041543;28;20212;-88
2023/02/07 09:14:31;;;;;;;40.77;24.10;;;2.00;99.90;;;;;;5045429;28;20154;-88
2023/02/07 09:16:57;;;;;;;37.63;23.07;;;2.00;99.90;;;;;;5046456;28;20641;-87
2023/02/07 09:19:24;;;;;;;38.27;22.50;;;2.00;99.90;;;;;;5046114;28;20648;-88
2023/02/07 09:21:49;;;;;;;39.73;24.00;;;2.00;99.90;;;;;;5046322;28;20173;-86
2023/02/07 09:24:15;;;;;;;39.97;22.30;;;2.10;99.90;;;;;;5040039;28;20169;-87
2023/02/07 09:26:41;;;;;;;39.43;23.07;;;2.30;99.90;;;;;;5040873;28;20189;-86
2023/02/07 09:29:10;;;;;;;35.60;23.23;;;2.30;99.90;;;;;;5041645;28;20174;-89
2023/02/07 09:31:36;;;;;;;34.47;21.50;;;2.50;99.90;;;;;;5042167;28;20223;-90
2023/02/07 09:34:03;;;;;;;31.23;20.43;;;2.70;99.90;;;;;;5043405;28;20237;-87
2023/02/07 09:36:30;;;;;;;27.53;17.83;;;2.90;99.90;;;;;;5045457;28;20189;-88
2023/02/07 09:38:58;;;;;;;30.00;19.80;;;2.90;99.90;;;;;;5043589;28;20526;-88
2023/02/07 09:41:53;;;;;;;26.77;17.27;;;3.00;99.90;;;;;;5042296;28;20173;-86
2023/02/07 09:44:45;;;;;;;28.50;16.77;;;3.10;99.90;;;;;;5049627;28;20170;-87
2023/02/07 09:47:15;;;;;;;28.13;17.87;;;3.30;99.70;;;;;;5048329;28;20666;-88
2023/02/07 09:49:56;;;;;;;28.97;17.60;;;3.40;98.20;;;;;;5044839;28;20162;-87
2023/02/07 09:52:38;;;;;;;31.33;19.03;;;3.50;96.50;;;;;;5056541;28;20213;-85
2023/02/07 09:55:13;;;;;;;25.30;15.73;;;3.60;95.30;;;;;;5051998;28;20173;-87
2023/02/07 09:57:45;;;;;;;26.47;17.07;;;3.60;93.00;;;;;;5043758;28;20638;-88
2023/02/07 10:00:27;;;;;;;24.63;16.23;;;3.70;92.10;;;;;;5039680;28;20239;-86
2023/02/07 10:03:20;;;;;;;20.63;12.17;;;3.90;92.10;;;;;;5042540;28;20169;-88
2023/02/07 10:06:05;;;;;;;18.23;11.70;;;4.00;90.40;;;;;;5050534;28;20182;-88
2023/02/07 10:08:33;;;;;;;16.77;10.30;;;4.00;77.10;;;;;;5052282;28;20188;-85
2023/02/07 10:11:41;;;;;;;14.83;9.77;;;4.10;66.60;;;;;;5045318;28;20202;-87
2023/02/07 10:14:15;;;;;;;17.07;9.37;;;4.20;60.30;;;;;;5053525;28;20638;-88
2023/02/07 10:17:06;;;;;;;17.60;9.53;;;4.20;56.30;;;;;;5035998;28;20169;-87
2023/02/07 10:19:52;;;;;;;16.17;10.53;;;4.30;54.60;;;;;;5036944;28;20525;-88
2023/02/07 10:22:26;;;;;;;20.17;9.80;;;4.50;53.60;;;;;;5037481;28;20181;-87
2023/02/07 10:25:16;;;;;;;16.63;9.57;;;4.80;54.00;;;;;;5037064;28;20173;-86
2023/02/07 10:27:50;;;;;;;13.77;9.13;;;5.10;50.60;;;;;;5036342;28;20186;-88
2023/02/07 10:30:23;;;;;;;14.23;9.40;;;5.30;46.70;;;;;;5036028;28;20234;-87
2023/02/07 10:32:51;;;;;;;14.73;9.93;;;5.50;42.60;;;;;;5036802;28;20255;-87
2023/02/07 10:35:23;;;;;;;14.47;8.70;;;5.90;36.30;;;;;;5038435;28;20195;-87
2023/02/07 10:37:53;;;;;;;12.07;7.07;;;6.10;30.60;;;;;;5039976;28;20679;-88
2023/02/07 10:40:39;;;;;;;13.43;7.90;;;5.80;20.20;;;;;;5042235;28;20543;-87
2023/02/07 10:43:11;;;;;;;14.40;8.23;;;5.60;16.80;;;;;;5044298;28;20177;-89
2023/02/07 10:45:41;;;;;;;13.90;7.97;;;5.50;12.70;;;;;;5044039;28;20181;-88
2023/02/07 10:48:14;;;;;;;12.37;8.03;;;5.30;8.40;;;;;;5065217;28;20177;-85
2023/02/07 10:50:39;;;;;;;11.80;7.70;;;5.40;11.40;;;;;;5056011;28;20166;-84
2023/02/07 10:53:05;;;;;;;13.20;8.47;;;5.60;7.20;;;;;;5058810;28;20212;-82
2023/02/07 10:55:49;;;;;;;9.80;6.73;;;5.90;6.80;;;;;;5076440;28;20162;-86
2023/02/07 10:58:21;;;;;;;8.80;7.10;;;6.20;1.90;;;;;;5057873;28;20216;-84
2023/02/07 11:00:51;;;;;;;11.83;7.73;;;6.30;1.00;;;;;;5056943;28;20599;-88
2023/02/07 11:03:22;;;;;;;10.17;7.53;;;6.50;1.00;;;;;;5048353;28;20170;-89
2023/02/07 11:06:01;;;;;;;13.37;7.93;;;6.80;1.00;;;;;;5055742;28;20150;-88
2023/02/07 11:08:31;;;;;;;10.20;6.90;;;6.50;1.00;;;;;;5054745;28;20173;-88
2023/02/07 11:11:49;;;;;;;12.37;6.97;;;6.30;1.00;;;;;;5066007;28;20277;-88
2023/02/07 11:14:28;;;;;;;9.63;6.57;;;6.10;1.00;;;;;;5062087;28;20192;-90
2023/02/07 11:17:45;;;;;;;10.13;5.53;;;6.30;1.00;;;;;;5060176;28;20189;-90
2023/02/07 11:21:00;;;;;;;12.10;6.43;;;6.60;1.00;;;;;;5058616;28;20177;-90
2023/02/07 11:23:33;;;;;;;11.20;7.30;;;7.00;1.00;;;;;;5026550;28;20185;-89
2023/02/07 11:26:57;;;;;;;16.57;8.53;;;7.10;1.00;;;;;;5070858;28;20186;-89
2023/02/07 11:29:32;;;;;;;15.40;8.43;;;7.40;1.00;;;;;;5059479;28;20193;-86
2023/02/07 11:32:00;;;;;;;14.70;8.73;;;7.40;1.00;;;;;;5052855;28;20369;-87
2023/02/07 11:34:46;;;;;;;12.63;8.73;;;7.40;1.00;;;;;;5057868;28;20158;-88
2023/02/07 11:41:06;;;;;;;13.83;8.20;;;7.30;1.00;;;;;;5058115;28;20158;-86
2023/02/07 11:44:18;;;;;;;11.80;7.70;;;6.90;1.00;;;;;;5059260;28;20602;-86
2023/02/07 11:46:47;;;;;;;14.00;8.57;;;6.60;1.00;;;;;;5032634;28;20188;-87
2023/02/07 11:49:53;;;;;;;18.17;8.10;;;6.70;1.00;;;;;;5044073;28;20186;-89
2023/02/07 11:52:21;;;;;;;14.80;8.03;;;6.60;1.00;;;;;;5061620;28;20304;-88
2023/02/07 11:54:56;;;;;;;12.23;8.07;;;6.80;1.00;;;;;;5045161;28;20177;-90
2023/02/07 11:57:25;;;;;;;11.23;6.80;;;7.00;1.00;;;;;;5058580;28;20228;-85
2023/02/07 12:00:05;;;;;;;19.30;8.57;;;6.80;1.00;;;;;;5056124;28;20197;-87
2023/02/07 12:02:35;;;;;;;16.00;8.37;;;6.50;1.00;;;;;;5039360;28;20177;-87
2023/02/07 12:05:16;;;;;;;13.20;8.10;;;6.50;1.00;;;;;;5040027;28;20176;-88
2023/02/07 12:07:49;;;;;;;10.70;7.20;;;6.60;1.00;;;;;;5039033;28;20188;-88
2023/02/07 12:10:38;;;;;;;12.43;8.67;;;6.50;1.00;;;;;;5050702;28;20178;-86
2023/02/07 12:13:12;;;;;;;11.57;7.60;;;6.70;1.00;;;;;;5056922;28;20193;-86
2023/02/07 12:15:45;;;;;;;14.63;7.50;;;6.60;1.00;;;;;;5045115;28;20174;-87
2023/02/07 12:18:28;;;;;;;13.53;7.93;;;6.70;1.00;;;;;;5039749;28;20177;-86
2023/02/07 12:21:16;;;;;;;16.63;8.73;;;6.70;1.00;;;;;;5038245;28;20715;-90
2023/02/07 12:24:00;;;;;;;12.53;7.67;;;6.60;1.00;;;;;;5039679;28;20178;-88
2023/02/07 12:26:50;;;;;;;11.70;7.17;;;6.50;1.00;;;;;;5058479;28;20177;-88
2023/02/07 12:29:38;;;;;;;11.73;7.20;;;6.40;1.00;;;;;;5039121;28;20180;-88
2023/02/07 12:32:31;;;;;;;13.30;6.83;;;6.40;1.00;;;;;;5039904;28;20213;-88
2023/02/07 12:35:22;;;;;;;12.33;7.43;;;6.40;1.00;;;;;;5040929;28;20174;-86
2023/02/07 12:38:23;;;;;;;9.93;6.77;;;6.50;1.00;;;;;;5048362;28;20185;-87
2023/02/07 12:41:13;;;;;;;10.13;6.80;;;6.60;1.00;;;;;;5035273;28;20521;-88
2023/02/07 12:43:51;;;;;;;12.70;6.67;;;6.60;1.00;;;;;;5035527;28;20178;-87
2023/02/07 12:46:35;;;;;;;8.80;6.40;;;6.60;1.00;;;;;;5035255;28;20250;-87
2023/02/07 12:49:17;;;;;;;10.27;7.47;;;6.50;1.00;;;;;;5034976;28;20185;-88
2023/02/07 12:51:43;;;;;;;12.50;7.60;;;6.50;1.00;;;;;;5036477;28;20271;-89
2023/02/07 12:54:21;;;;;;;15.63;8.60;;;6.50;1.00;;;;;;5037072;28;20170;-89
2023/02/07 12:57:11;;;;;;;13.03;9.20;;;6.50;1.00;;;;;;5036482;28;20666;-87
2023/02/07 12:59:46;;;;;;;14.77;10.30;;;6.50;1.00;;;;;;5049190;28;20614;-85
2023/02/07 13:02:47;;;;;;;12.17;8.30;;;6.50;1.00;;;;;;5056502;28;20185;-87
2023/02/07 13:05:31;;;;;;;13.27;8.33;;;6.60;1.00;;;;;;5056577;28;20158;-85
2023/02/07 13:08:21;;;;;;;12.83;7.70;;;6.50;1.00;;;;;;5046257;28;20177;-87
2023/02/07 13:11:20;;;;;;;13.33;7.47;;;6.50;1.00;;;;;;5051144;28;20154;-89
2023/02/07 13:13:49;;;;;;;10.87;7.73;;;6.40;1.00;;;;;;5038393;28;20550;-84
2023/02/07 13:16:25;;;;;;;11.93;7.37;;;6.50;1.00;;;;;;5046826;28;20197;-85
2023/02/07 13:19:21;;;;;;;15.27;7.70;;;6.50;1.00;;;;;;5041555;28;20300;-87
2023/02/07 13:22:05;;;;;;;9.53;6.73;;;6.60;1.00;;;;;;5058433;28;20260;-85
2023/02/07 13:24:34;;;;;;;10.73;6.63;;;6.60;1.00;;;;;;5038173;28;20222;-84